Time;durP1;ratioP1;P1;durP2;ratioP2;P2;SDS_P1;SDS_P2;PMS_P1;PMS_P2;Temp;Humidity;BMP_temperature;BMP_pressure;BME280_temperature;BME280_humidity;BME280_pressure;Samples;Min_cycle;Max_cycle;Signal;HPM_P1;HPM_P2
2022/03/12 00:02:13;;;;;;;25.70;11.43;;;3.20;27.30;;;;;;5116792;28;20480;-68
2022/03/12 00:04:41;;;;;;;15.57;9.90;;;3.20;27.30;;;;;;5116702;28;20460;-69
2022/03/12 00:07:09;;;;;;;14.27;8.73;;;3.20;27.40;;;;;;5115941;28;20452;-69
2022/03/12 00:09:36;;;;;;;14.03;9.37;;;3.20;27.40;;;;;;5116576;28;20539;-70
2022/03/12 00:12:03;;;;;;;22.03;11.10;;;3.20;27.50;;;;;;5116775;28;20520;-70
2022/03/12 00:14:31;;;;;;;13.90;10.40;;;3.20;27.60;;;;;;5116796;28;20458;-68
2022/03/12 00:16:58;;;;;;;16.63;10.10;;;3.10;27.70;;;;;;5116701;28;20467;-69
2022/03/12 00:19:25;;;;;;;18.67;10.70;;;3.10;27.80;;;;;;5116616;28;20532;-69
2022/03/12 00:21:54;;;;;;;17.00;10.00;;;3.00;27.80;;;;;;5116558;28;20472;-70
2022/03/12 00:24:21;;;;;;;21.80;12.00;;;3.00;28.00;;;;;;5117059;28;20472;-68
2022/03/12 00:26:48;;;;;;;17.17;11.07;;;2.90;28.10;;;;;;5116695;28;20452;-69
2022/03/12 00:29:16;;;;;;;18.60;11.07;;;2.90;28.20;;;;;;5116811;28;20826;-68
2022/03/12 00:31:44;;;;;;;21.90;11.97;;;2.90;28.30;;;;;;5116546;28;20489;-69
2022/03/12 00:34:11;;;;;;;20.10;11.60;;;2.90;28.40;;;;;;5116208;28;20460;-69
2022/03/12 00:36:38;;;;;;;17.77;11.10;;;2.90;28.50;;;;;;5116116;28;20938;-69
2022/03/12 00:39:09;;;;;;;17.70;10.37;;;2.80;28.50;;;;;;5116464;28;20452;-69
2022/03/12 00:41:38;;;;;;;18.60;11.70;;;2.80;28.60;;;;;;5117189;28;20575;-69
2022/03/12 00:44:05;;;;;;;18.10;10.23;;;2.80;28.70;;;;;;5120826;28;20778;-69
2022/03/12 00:46:32;;;;;;;16.93;10.30;;;2.80;28.80;;;;;;5120655;28;20448;-68
2022/03/12 00:48:59;;;;;;;16.07;9.90;;;2.80;28.80;;;;;;5118242;28;20452;-69
2022/03/12 00:51:26;;;;;;;19.60;10.83;;;2.80;29.00;;;;;;5115967;28;20480;-69
2022/03/12 00:53:52;;;;;;;20.33;11.17;;;2.70;29.00;;;;;;5116168;28;20522;-69
2022/03/12 00:56:20;;;;;;;17.93;10.53;;;2.70;29.10;;;;;;5116161;28;20460;-68
2022/03/12 00:58:50;;;;;;;15.23;9.57;;;2.70;29.30;;;;;;5116820;28;20543;-69
2022/03/12 01:01:17;;;;;;;16.60;9.83;;;2.70;29.40;;;;;;5115829;28;20467;-69
2022/03/12 01:03:44;;;;;;;21.50;10.83;;;2.70;29.40;;;;;;5115914;28;21062;-69
2022/03/12 01:06:15;;;;;;;17.83;9.93;;;2.60;29.50;;;;;;5115929;28;20461;-69
2022/03/12 01:08:41;;;;;;;18.13;10.93;;;2.60;30.20;;;;;;5115972;28;20487;-69
2022/03/12 01:11:10;;;;;;;18.57;10.07;;;2.50;29.90;;;;;;5115484;28;20948;-69
2022/03/12 01:13:39;;;;;;;17.73;10.23;;;2.50;30.00;;;;;;5115689;28;20463;-69
2022/03/12 01:16:06;;;;;;;19.40;9.97;;;2.50;30.00;;;;;;5115750;28;20456;-69
2022/03/12 01:18:37;;;;;;;16.63;9.47;;;2.40;30.00;;;;;;5115807;28;20807;-68
2022/03/12 01:21:08;;;;;;;17.07;10.30;;;2.40;30.40;;;;;;5116263;28;20444;-70
2022/03/12 01:23:35;;;;;;;15.77;10.27;;;2.40;30.60;;;;;;5115456;28;20949;-69
2022/03/12 01:26:02;;;;;;;19.17;10.33;;;2.40;30.70;;;;;;5115817;28;20910;-69
2022/03/12 01:28:29;;;;;;;18.33;10.30;;;2.30;30.70;;;;;;5115580;28;20456;-69
2022/03/12 01:30:58;;;;;;;15.63;9.90;;;2.20;30.90;;;;;;5115468;28;20456;-70
2022/03/12 01:33:24;;;;;;;16.77;9.17;;;2.20;31.30;;;;;;5115092;28;20452;-69
2022/03/12 01:35:51;;;;;;;17.40;10.20;;;2.20;31.50;;;;;;5115712;28;20467;-69
2022/03/12 01:38:18;;;;;;;18.60;10.10;;;2.10;31.50;;;;;;5116150;28;20480;-69
2022/03/12 01:40:45;;;;;;;14.00;10.33;;;2.10;31.70;;;;;;5115222;28;20467;-69
2022/03/12 01:43:12;;;;;;;16.20;9.63;;;2.10;31.90;;;;;;5115175;28;20472;-69
2022/03/12 01:45:38;;;;;;;20.40;9.63;;;2.10;31.80;;;;;;5115263;28;20453;-69
2022/03/12 01:48:08;;;;;;;14.73;9.40;;;2.00;31.90;;;;;;5114663;28;20452;-68
2022/03/12 01:50:37;;;;;;;13.80;9.37;;;2.00;32.00;;;;;;5115124;28;20471;-71
2022/03/12 01:53:06;;;;;;;17.40;9.60;;;2.00;32.00;;;;;;5115223;28;20529;-70
2022/03/12 01:55:33;;;;;;;16.07;9.83;;;1.90;32.10;;;;;;5115249;28;20453;-70
2022/03/12 01:58:04;;;;;;;15.47;10.30;;;1.90;32.20;;;;;;5114941;28;20467;-71
2022/03/12 02:00:41;;;;;;;13.90;9.00;;;1.90;32.30;;;;;;5114960;28;20833;-70
2022/03/12 02:03:10;;;;;;;16.70;10.00;;;1.90;32.30;;;;;;5114986;28;20563;-70
2022/03/12 02:05:37;;;;;;;23.97;10.30;;;1.90;32.40;;;;;;5114662;28;20936;-69
2022/03/12 02:08:04;;;;;;;17.17;10.00;;;1.90;32.50;;;;;;5115354;28;20467;-70
2022/03/12 02:10:31;;;;;;;16.33;10.90;;;1.80;32.50;;;;;;5115095;28;20460;-70
2022/03/12 02:12:58;;;;;;;16.43;9.83;;;1.80;32.70;;;;;;5114969;28;20505;-70
2022/03/12 02:15:25;;;;;;;17.80;10.00;;;1.80;32.60;;;;;;5114947;28;20533;-69
2022/03/12 02:17:52;;;;;;;17.30;10.57;;;1.80;32.60;;;;;;5114544;28;20456;-70
2022/03/12 02:20:22;;;;;;;26.73;9.53;;;1.80;32.80;;;;;;5114734;28;20853;-70
2022/03/12 02:22:51;;;;;;;15.63;11.03;;;1.70;32.90;;;;;;5114814;28;20591;-69
2022/03/12 02:25:26;;;;;;;15.87;10.17;;;1.70;33.10;;;;;;5114506;28;20467;-70
2022/03/12 02:27:52;;;;;;;18.80;11.50;;;1.70;33.10;;;;;;5114699;28;20509;-70
2022/03/12 02:30:20;;;;;;;19.23;11.00;;;1.60;33.20;;;;;;5114883;28;20460;-70
2022/03/12 02:32:47;;;;;;;17.10;11.23;;;1.60;33.20;;;;;;5119039;28;20840;-69
2022/03/12 02:35:15;;;;;;;21.03;10.97;;;1.60;33.30;;;;;;5118651;28;20820;-69
2022/03/12 02:37:45;;;;;;;16.47;9.97;;;1.60;33.30;;;;;;5118799;28;20452;-69
2022/03/12 02:40:13;;;;;;;17.83;10.70;;;1.60;33.40;;;;;;5118539;28;20924;-69
2022/03/12 02:42:43;;;;;;;23.57;11.53;;;1.50;33.40;;;;;;5118538;28;20472;-70
2022/03/12 02:45:10;;;;;;;22.97;11.73;;;1.60;33.40;;;;;;5119530;28;20763;-70
2022/03/12 02:47:43;;;;;;;16.13;10.03;;;1.60;33.30;;;;;;5118672;28;20456;-70
2022/03/12 02:50:14;;;;;;;19.07;10.27;;;1.50;33.40;;;;;;5118211;28;20976;-70
2022/03/12 02:52:44;;;;;;;24.90;10.47;;;1.60;33.60;;;;;;5118150;28;20958;-70
2022/03/12 02:55:13;;;;;;;15.57;9.80;;;1.50;33.60;;;;;;5118298;28;20555;-70
2022/03/12 02:57:42;;;;;;;18.53;11.67;;;1.50;33.80;;;;;;5119024;28;20502;-69
2022/03/12 03:00:12;;;;;;;16.57;10.70;;;1.50;33.80;;;;;;5119054;28;20480;-69
2022/03/12 03:02:40;;;;;;;25.07;11.57;;;1.50;33.90;;;;;;5118460;28;21119;-70
2022/03/12 03:05:14;;;;;;;14.00;9.50;;;1.40;33.70;;;;;;5118650;28;20463;-70
2022/03/12 03:07:41;;;;;;;18.90;10.70;;;1.40;33.90;;;;;;5118352;28;20444;-70
2022/03/12 03:10:09;;;;;;;23.43;11.83;;;1.40;34.10;;;;;;5118156;28;20456;-69
2022/03/12 03:12:36;;;;;;;16.83;11.10;;;1.40;34.10;;;;;;5118093;28;20459;-70
2022/03/12 03:15:05;;;;;;;16.53;9.90;;;1.40;34.10;;;;;;5117999;28;20491;-70
2022/03/12 03:17:34;;;;;;;13.97;9.30;;;1.40;34.00;;;;;;5118614;28;20736;-70
2022/03/12 03:20:01;;;;;;;14.80;10.17;;;1.40;34.20;;;;;;5117790;28;20635;-70
2022/03/12 03:22:28;;;;;;;16.70;10.50;;;1.40;34.20;;;;;;5117908;28;20480;-70
2022/03/12 03:24:55;;;;;;;20.87;10.73;;;1.40;34.30;;;;;;5118826;28;20520;-70
2022/03/12 03:27:21;;;;;;;18.77;10.40;;;1.40;34.80;;;;;;5118692;28;20478;-70
2022/03/12 03:29:48;;;;;;;15.90;10.03;;;1.40;34.20;;;;;;5118993;28;20456;-70
2022/03/12 03:32:17;;;;;;;16.43;9.60;;;1.30;34.30;;;;;;5118883;28;20571;-70
2022/03/12 03:34:43;;;;;;;18.50;10.23;;;1.30;34.40;;;;;;5117624;28;20456;-70
2022/03/12 03:37:10;;;;;;;22.60;10.27;;;1.40;34.40;;;;;;5117849;28;20494;-70
2022/03/12 03:39:39;;;;;;;17.57;10.43;;;1.30;34.40;;;;;;5117661;28;20804;-70
2022/03/12 03:42:05;;;;;;;15.67;9.30;;;1.30;34.50;;;;;;5116446;28;20543;-70
2022/03/12 03:44:32;;;;;;;16.00;10.60;;;1.30;34.60;;;;;;5117378;28;20484;-70
2022/03/12 03:46:59;;;;;;;18.07;11.10;;;1.30;34.80;;;;;;5117342;28;20457;-70
2022/03/12 03:49:27;;;;;;;18.47;10.50;;;1.20;34.70;;;;;;5117471;28;20520;-70
2022/03/12 03:51:56;;;;;;;15.00;10.13;;;1.20;34.60;;;;;;5116569;28;20484;-70
2022/03/12 03:54:23;;;;;;;17.23;9.80;;;1.20;35.00;;;;;;5117222;28;20460;-70
2022/03/12 03:56:50;;;;;;;21.13;10.57;;;1.20;35.00;;;;;;5117315;28;20467;-71
2022/03/12 03:59:17;;;;;;;18.53;10.77;;;1.20;35.10;;;;;;5116883;28;20463;-71
2022/03/12 04:01:45;;;;;;;17.50;10.30;;;1.20;35.10;;;;;;5117099;28;20522;-70
2022/03/12 04:04:13;;;;;;;18.30;10.23;;;1.20;35.10;;;;;;5116933;28;20575;-70
2022/03/12 04:06:41;;;;;;;20.50;11.83;;;1.10;35.20;;;;;;5116972;28;20522;-71
2022/03/12 04:09:08;;;;;;;20.20;11.90;;;1.10;35.30;;;;;;5117193;28;20517;-71
2022/03/12 04:11:35;;;;;;;19.97;10.77;;;1.10;35.30;;;;;;5117085;28;20494;-70
2022/03/12 04:14:04;;;;;;;17.57;10.00;;;1.10;35.40;;;;;;5116753;28;20452;-70
2022/03/12 04:16:33;;;;;;;16.43;9.63;;;1.10;35.40;;;;;;5116644;28;20467;-71
2022/03/12 04:19:05;;;;;;;20.30;10.30;;;1.10;35.50;;;;;;5116944;28;20453;-71
2022/03/12 04:21:32;;;;;;;22.10;11.23;;;1.10;35.40;;;;;;5116970;28;20511;-72
2022/03/12 04:24:00;;;;;;;18.70;11.40;;;1.00;35.60;;;;;;5116696;28;20472;-70
2022/03/12 04:26:27;;;;;;;16.90;10.50;;;1.00;35.70;;;;;;5116808;28;20467;-71
2022/03/12 04:28:54;;;;;;;24.20;11.80;;;1.00;35.90;;;;;;5117471;28;20491;-70
2022/03/12 04:31:21;;;;;;;18.30;11.20;;;1.00;35.90;;;;;;5116558;28;20460;-71
2022/03/12 04:33:47;;;;;;;17.53;10.43;;;1.00;36.00;;;;;;5116581;28;20453;-71
2022/03/12 04:36:14;;;;;;;19.80;11.10;;;0.90;36.00;;;;;;5116622;28;20458;-69
2022/03/12 04:38:41;;;;;;;16.30;10.20;;;0.90;36.30;;;;;;5116309;28;20952;-70
2022/03/12 04:41:09;;;;;;;19.53;10.90;;;0.90;36.40;;;;;;5116506;28;20460;-70
2022/03/12 04:43:36;;;;;;;22.77;11.40;;;0.80;36.40;;;;;;5116524;28;20877;-71
2022/03/12 04:46:08;;;;;;;16.10;10.60;;;0.80;36.60;;;;;;5116630;28;20452;-70
2022/03/12 04:48:35;;;;;;;20.03;10.57;;;0.90;36.60;;;;;;5116145;28;20467;-70
2022/03/12 04:51:04;;;;;;;24.60;10.90;;;0.90;36.80;;;;;;5116682;28;20487;-70
2022/03/12 04:53:32;;;;;;;18.10;10.87;;;0.80;36.80;;;;;;5116141;28;20827;-71
2022/03/12 04:55:58;;;;;;;18.03;11.80;;;0.90;36.90;;;;;;5117216;28;20476;-71
2022/03/12 04:58:28;;;;;;;17.83;10.93;;;0.90;36.90;;;;;;5121050;28;20476;-71
2022/03/12 05:00:54;;;;;;;21.57;11.80;;;0.90;36.80;;;;;;5120959;28;20461;-70
2022/03/12 05:03:23;;;;;;;19.63;11.90;;;0.90;36.80;;;;;;5118640;28;20989;-70
2022/03/12 05:05:52;;;;;;;20.37;10.10;;;1.00;36.80;;;;;;5116178;28;20467;-71
2022/03/12 05:08:20;;;;;;;14.40;9.87;;;0.90;36.90;;;;;;5116323;28;20791;-70
2022/03/12 05:10:51;;;;;;;16.27;10.97;;;0.90;36.90;;;;;;5115464;28;20465;-70
2022/03/12 05:13:22;;;;;;;21.93;11.80;;;1.00;36.90;;;;;;5116039;28;20433;-70
2022/03/12 05:15:52;;;;;;;16.57;9.70;;;1.00;37.00;;;;;;5115954;28;20531;-71
2022/03/12 05:18:20;;;;;;;17.27;10.27;;;0.90;37.10;;;;;;5115855;28;20463;-71
2022/03/12 05:20:47;;;;;;;20.63;11.00;;;1.00;37.10;;;;;;5115859;28;20521;-71
2022/03/12 05:23:16;;;;;;;18.80;11.90;;;1.00;37.10;;;;;;5115551;28;20480;-71
2022/03/12 05:25:46;;;;;;;20.20;11.57;;;1.00;37.30;;;;;;5115605;28;20502;-71
2022/03/12 05:28:15;;;;;;;23.33;11.93;;;1.00;37.30;;;;;;5116084;28;20448;-71
2022/03/12 05:30:43;;;;;;;19.07;12.40;;;1.00;37.20;;;;;;5116002;28;20452;-71
2022/03/12 05:33:12;;;;;;;20.60;12.67;;;0.90;37.20;;;;;;5115742;28;20837;-71
2022/03/12 05:35:41;;;;;;;19.93;12.63;;;0.90;37.40;;;;;;5115878;28;20465;-71
2022/03/12 05:38:11;;;;;;;21.90;12.10;;;1.00;37.40;;;;;;5115971;28;20452;-71
2022/03/12 05:40:38;;;;;;;19.43;11.50;;;1.00;37.50;;;;;;5115559;28;20517;-70
2022/03/12 05:43:15;;;;;;;18.63;12.03;;;0.90;37.60;;;;;;5115286;28;20493;-70
2022/03/12 05:45:42;;;;;;;26.13;12.13;;;0.90;37.80;;;;;;5115306;28;20436;-71
2022/03/12 05:48:09;;;;;;;20.80;12.30;;;0.80;38.00;;;;;;5115715;28;20763;-70
2022/03/12 05:50:38;;;;;;;19.47;13.20;;;0.90;38.00;;;;;;5114865;28;20452;-71
2022/03/12 05:53:09;;;;;;;22.07;10.57;;;0.90;38.00;;;;;;5115302;28;20448;-70
2022/03/12 05:55:38;;;;;;;21.80;12.10;;;0.90;37.90;;;;;;5115281;28;20523;-70
2022/03/12 05:58:08;;;;;;;23.27;11.40;;;0.90;38.10;;;;;;5115212;28;20830;-71
2022/03/12 06:00:36;;;;;;;21.60;12.30;;;0.90;37.90;;;;;;5115243;28;20482;-70
2022/03/12 06:03:03;;;;;;;18.33;11.03;;;0.90;38.10;;;;;;5115375;28;20779;-70
2022/03/12 06:05:31;;;;;;;18.87;11.77;;;0.90;38.20;;;;;;5114056;28;20922;-70
2022/03/12 06:08:00;;;;;;;23.10;11.00;;;0.90;38.20;;;;;;5115746;28;20550;-71
2022/03/12 06:10:29;;;;;;;18.17;10.80;;;0.90;38.10;;;;;;5115265;28;20673;-70
2022/03/12 06:12:58;;;;;;;20.30;12.17;;;0.90;38.20;;;;;;5115037;28;20456;-71
2022/03/12 06:15:26;;;;;;;17.23;10.10;;;1.00;38.30;;;;;;5114798;28;20452;-71
2022/03/12 06:17:54;;;;;;;23.07;10.40;;;1.00;38.30;;;;;;5115072;28;20461;-70
2022/03/12 06:20:22;;;;;;;21.93;12.20;;;1.10;38.20;;;;;;5114997;28;20466;-71
2022/03/12 06:22:51;;;;;;;23.50;11.93;;;1.10;38.40;;;;;;5114811;28;20494;-71
2022/03/12 06:25:20;;;;;;;22.93;11.77;;;1.10;38.40;;;;;;5114968;28;20484;-71
2022/03/12 06:27:53;;;;;;;20.57;12.13;;;1.10;38.40;;;;;;5115117;28;20517;-71
2022/03/12 06:30:21;;;;;;;23.03;12.10;;;1.20;38.40;;;;;;5116156;28;20879;-71
2022/03/12 06:32:49;;;;;;;21.07;11.47;;;1.20;38.30;;;;;;5115380;28;20460;-70
2022/03/12 06:35:17;;;;;;;21.43;12.00;;;1.20;38.30;;;;;;5114686;28;20513;-71
2022/03/12 06:37:44;;;;;;;22.03;11.63;;;1.30;38.40;;;;;;5115007;28;20463;-71
2022/03/12 06:40:14;;;;;;;21.47;11.60;;;1.30;38.20;;;;;;5114898;28;20467;-71
2022/03/12 06:42:43;;;;;;;20.23;12.50;;;1.40;38.30;;;;;;5114969;28;20771;-71
2022/03/12 06:45:15;;;;;;;17.17;11.63;;;1.40;38.20;;;;;;5114618;28;20821;-71
2022/03/12 06:47:43;;;;;;;22.27;12.00;;;1.40;38.20;;;;;;5115180;28;20445;-71
2022/03/12 06:50:13;;;;;;;17.97;10.97;;;1.50;38.50;;;;;;5114727;28;20809;-71
2022/03/12 06:52:41;;;;;;;20.60;11.90;;;1.50;38.20;;;;;;5114221;28;20507;-71
2022/03/12 06:55:09;;;;;;;19.60;11.10;;;1.60;38.20;;;;;;5114683;28;20495;-71
2022/03/12 06:57:36;;;;;;;17.23;12.03;;;1.60;38.00;;;;;;5114517;28;20930;-71
2022/03/12 07:00:05;;;;;;;16.43;10.27;;;1.70;38.00;;;;;;5114910;28;20456;-71
2022/03/12 07:02:32;;;;;;;16.37;10.10;;;1.70;38.00;;;;;;5114486;28;20452;-70
2022/03/12 07:04:59;;;;;;;22.83;12.40;;;1.70;38.40;;;;;;5114835;28;20802;-70
2022/03/12 07:07:28;;;;;;;17.83;11.20;;;1.70;37.70;;;;;;5114918;28;20481;-71
2022/03/12 07:09:54;;;;;;;26.27;11.80;;;1.80;37.70;;;;;;5115029;28;20456;-71
2022/03/12 07:12:21;;;;;;;16.47;10.53;;;1.80;37.70;;;;;;5115147;28;20563;-71
2022/03/12 07:14:48;;;;;;;18.30;12.30;;;1.90;37.70;;;;;;5114667;28;20449;-70
2022/03/12 07:17:16;;;;;;;18.13;11.27;;;1.90;37.70;;;;;;5116240;28;20463;-70
2022/03/12 07:19:43;;;;;;;20.27;11.93;;;2.00;37.70;;;;;;5118415;28;20789;-70
2022/03/12 07:22:10;;;;;;;27.97;11.90;;;2.00;37.50;;;;;;5118449;28;20463;-70
2022/03/12 07:24:36;;;;;;;19.43;11.47;;;2.10;38.10;;;;;;5117989;28;20545;-70
2022/03/12 07:27:03;;;;;;;22.77;11.60;;;2.20;37.40;;;;;;5118047;28;20837;-70
2022/03/12 07:29:32;;;;;;;17.80;12.20;;;2.20;37.20;;;;;;5118022;28;20452;-71
2022/03/12 07:31:58;;;;;;;18.90;11.30;;;2.20;37.20;;;;;;5118072;28;20452;-71
2022/03/12 07:34:27;;;;;;;17.97;11.10;;;2.30;37.10;;;;;;5117621;28;20926;-70
2022/03/12 07:36:54;;;;;;;18.13;10.77;;;2.40;37.00;;;;;;5117929;28;20503;-70
2022/03/12 07:39:21;;;;;;;16.97;11.07;;;2.40;36.90;;;;;;5118021;28;20991;-70
2022/03/12 07:41:48;;;;;;;17.13;10.90;;;2.50;36.60;;;;;;5117590;28;20452;-70
2022/03/12 07:44:15;;;;;;;23.07;11.90;;;2.50;36.60;;;;;;5117717;28;20472;-70
2022/03/12 07:46:41;;;;;;;19.00;11.37;;;2.70;36.40;;;;;;5117306;28;20456;-70
2022/03/12 07:49:08;;;;;;;18.60;12.77;;;2.70;36.20;;;;;;5117758;28;20453;-70
2022/03/12 07:51:36;;;;;;;19.33;10.27;;;2.80;36.10;;;;;;5117496;28;20526;-72
2022/03/12 07:54:06;;;;;;;20.97;10.87;;;2.80;35.90;;;;;;5117655;28;20449;-71
2022/03/12 07:56:34;;;;;;;19.43;11.40;;;2.90;35.90;;;;;;5117340;28;20504;-70
2022/03/12 07:59:01;;;;;;;16.27;11.23;;;3.00;36.00;;;;;;5117483;28;20513;-71
2022/03/12 08:01:28;;;;;;;17.80;11.10;;;3.00;35.80;;;;;;5117413;28;20456;-71
2022/03/12 08:03:54;;;;;;;16.50;11.27;;;3.20;35.50;;;;;;5117334;28;20914;-70
2022/03/12 08:06:21;;;;;;;20.47;10.77;;;3.20;35.10;;;;;;5117706;28;20589;-71
2022/03/12 08:08:49;;;;;;;13.13;9.97;;;3.40;34.90;;;;;;5118421;28;20452;-71
2022/03/12 08:11:25;;;;;;;17.20;10.27;;;3.50;34.60;;;;;;5118165;28;20948;-71
2022/03/12 08:13:53;;;;;;;17.63;9.97;;;3.60;34.30;;;;;;5120663;28;20506;-71
2022/03/12 08:16:19;;;;;;;17.23;10.10;;;3.70;33.90;;;;;;5117627;28;20480;-70
2022/03/12 08:18:46;;;;;;;21.13;11.80;;;3.70;33.70;;;;;;5117017;28;20448;-71
2022/03/12 08:21:13;;;;;;;13.60;9.70;;;3.80;33.60;;;;;;5116893;28;20464;-71
2022/03/12 08:23:40;;;;;;;15.50;9.70;;;3.90;33.50;;;;;;5116608;28;20448;-71
2022/03/12 08:26:08;;;;;;;16.70;9.07;;;4.00;33.50;;;;;;5116425;28;20809;-71
2022/03/12 08:28:35;;;;;;;18.60;10.53;;;4.10;32.80;;;;;;5115623;28;20533;-71
2022/03/12 08:31:03;;;;;;;13.20;8.67;;;4.20;33.00;;;;;;5116267;28;20495;-70
2022/03/12 08:33:30;;;;;;;15.40;10.20;;;4.30;32.20;;;;;;5116638;28;20467;-70
2022/03/12 08:35:57;;;;;;;13.87;9.00;;;4.40;31.30;;;;;;5116447;28;20809;-71
2022/03/12 08:38:25;;;;;;;16.07;9.60;;;4.40;30.70;;;;;;5116714;28;20525;-71
2022/03/12 08:40:52;;;;;;;14.70;9.53;;;4.50;30.30;;;;;;5116404;28;20463;-71
2022/03/12 08:43:22;;;;;;;16.63;8.87;;;4.60;29.90;;;;;;5116072;28;20452;-71
2022/03/12 08:45:50;;;;;;;13.67;8.10;;;4.70;29.60;;;;;;5116141;28;20510;-70
2022/03/12 08:48:18;;;;;;;11.80;8.07;;;4.80;29.20;;;;;;5116029;28;20453;-71
2022/03/12 08:50:46;;;;;;;14.80;8.60;;;4.80;29.00;;;;;;5115957;28;20600;-70
2022/03/12 08:53:15;;;;;;;16.40;9.20;;;4.90;28.70;;;;;;5116442;28;20441;-70
2022/03/12 08:55:42;;;;;;;12.07;9.03;;;5.00;28.10;;;;;;5115775;28;20547;-71
2022/03/12 08:58:09;;;;;;;12.97;8.27;;;5.10;28.30;;;;;;5116130;28;20460;-71
2022/03/12 09:00:37;;;;;;;14.73;9.10;;;5.10;28.00;;;;;;5116002;28;20456;-70
2022/03/12 09:03:06;;;;;;;13.87;8.17;;;5.20;28.00;;;;;;5115724;28;21011;-70
2022/03/12 09:05:33;;;;;;;12.10;8.70;;;5.30;27.40;;;;;;5115737;28;20491;-71
2022/03/12 09:08:00;;;;;;;11.97;8.23;;;5.30;27.40;;;;;;5116621;28;20457;-72
2022/03/12 09:10:26;;;;;;;12.83;8.80;;;5.40;27.30;;;;;;5120705;28;20452;-71
2022/03/12 09:12:53;;;;;;;11.17;7.93;;;5.50;26.90;;;;;;5120946;28;20457;-72
2022/03/12 09:15:24;;;;;;;11.20;8.00;;;5.60;27.00;;;;;;5117249;28;20559;-72
2022/03/12 09:17:52;;;;;;;17.50;7.43;;;5.70;27.10;;;;;;5115867;28;20509;-71
2022/03/12 09:20:20;;;;;;;12.30;7.87;;;5.80;26.90;;;;;;5115686;28;20456;-72
2022/03/12 09:22:47;;;;;;;15.03;8.00;;;5.80;26.30;;;;;;5115835;28;20824;-71
2022/03/12 09:25:15;;;;;;;12.67;8.10;;;5.80;25.90;;;;;;5115628;28;20480;-72
2022/03/12 09:27:44;;;;;;;13.80;7.90;;;5.80;26.10;;;;;;5115924;28;20745;-72
2022/03/12 09:30:12;;;;;;;12.37;7.57;;;5.80;25.80;;;;;;5115807;28;20878;-72
2022/03/12 09:32:39;;;;;;;14.00;7.93;;;5.80;25.90;;;;;;5115270;28;20780;-72
2022/03/12 09:35:08;;;;;;;13.90;8.30;;;5.90;26.00;;;;;;5115284;28;20483;-71
2022/03/12 09:37:38;;;;;;;10.70;7.43;;;6.00;25.80;;;;;;5116200;28;20915;-72
2022/03/12 09:40:06;;;;;;;12.03;7.90;;;6.10;25.10;;;;;;5114255;28;20457;-70
2022/03/12 09:42:34;;;;;;;12.20;7.30;;;6.10;24.80;;;;;;5115229;28;20448;-71
2022/03/12 09:45:02;;;;;;;17.57;7.93;;;6.20;25.10;;;;;;5114737;28;20476;-72
2022/03/12 09:47:28;;;;;;;10.20;7.40;;;6.20;25.10;;;;;;5114813;28;20454;-71
2022/03/12 09:49:55;;;;;;;10.47;7.70;;;6.30;24.80;;;;;;5114905;28;20541;-72
2022/03/12 09:52:23;;;;;;;9.60;6.40;;;6.40;24.70;;;;;;5114547;28;20481;-71
2022/03/12 09:54:50;;;;;;;10.50;6.90;;;6.50;23.70;;;;;;5114558;28;20906;-72
2022/03/12 09:57:17;;;;;;;11.70;7.10;;;6.60;23.30;;;;;;5114679;28;20452;-71
2022/03/12 09:59:43;;;;;;;10.83;7.03;;;6.60;23.90;;;;;;5114650;28;20456;-71
2022/03/12 10:02:10;;;;;;;12.10;7.90;;;6.70;24.20;;;;;;5114722;28;20563;-72
2022/03/12 10:04:37;;;;;;;12.80;8.13;;;6.80;24.10;;;;;;5115973;28;21015;-72
2022/03/12 10:07:08;;;;;;;11.23;7.60;;;7.00;24.30;;;;;;5115217;28;20467;-72
2022/03/12 10:09:37;;;;;;;8.63;5.70;;;7.20;23.60;;;;;;5114534;28;20654;-71
2022/03/12 10:12:05;;;;;;;10.67;6.80;;;7.30;22.70;;;;;;5115104;28;20467;-73
2022/03/12 10:14:32;;;;;;;10.97;6.43;;;7.40;22.70;;;;;;5114960;28;20907;-70
2022/03/12 10:17:00;;;;;;;12.73;6.47;;;7.40;22.50;;;;;;5115224;28;20484;-73
2022/03/12 10:19:27;;;;;;;12.50;7.30;;;7.50;22.70;;;;;;5115370;28;20906;-72
2022/03/12 10:21:54;;;;;;;8.83;6.23;;;7.60;22.40;;;;;;5114870;28;20987;-73
2022/03/12 10:24:21;;;;;;;12.17;7.10;;;7.60;22.50;;;;;;5114901;28;20459;-73
2022/03/12 10:26:49;;;;;;;10.63;6.60;;;7.80;22.50;;;;;;5115379;28;20460;-71
2022/03/12 10:29:16;;;;;;;12.20;7.60;;;7.90;21.80;;;;;;5114536;28;20460;-71
2022/03/12 10:31:43;;;;;;;9.57;6.17;;;7.90;21.80;;;;;;5114515;28;20452;-71
2022/03/12 10:34:15;;;;;;;10.77;6.70;;;7.90;21.60;;;;;;5114077;28;20453;-71
2022/03/12 10:36:42;;;;;;;7.90;5.70;;;8.00;21.30;;;;;;5114320;28;20492;-71
2022/03/12 10:39:09;;;;;;;11.13;6.83;;;8.10;21.50;;;;;;5114389;28;20456;-70
2022/03/12 10:41:37;;;;;;;8.60;6.40;;;8.20;21.70;;;;;;5114451;28;20885;-71
2022/03/12 10:44:06;;;;;;;10.13;6.43;;;8.30;21.80;;;;;;5115118;28;20543;-71
2022/03/12 10:46:35;;;;;;;15.27;8.33;;;8.30;21.90;;;;;;5114136;28;20488;-71
2022/03/12 10:49:03;;;;;;;10.50;7.30;;;8.50;21.30;;;;;;5114209;28;20457;-71
2022/03/12 10:51:31;;;;;;;9.13;6.40;;;8.50;21.40;;;;;;5114329;28;20502;-71
2022/03/12 10:54:05;;;;;;;11.90;7.30;;;8.60;21.60;;;;;;5118010;28;20910;-71
2022/03/12 10:56:44;;;;;;;10.07;6.23;;;8.70;21.50;;;;;;5117967;28;20539;-71
2022/03/12 10:59:14;;;;;;;13.53;6.43;;;8.80;21.20;;;;;;5117885;28;20886;-72
2022/03/12 11:01:47;;;;;;;8.90;6.50;;;8.90;21.40;;;;;;5117895;28;20517;-71
2022/03/12 11:04:18;;;;;;;11.80;7.30;;;9.00;21.30;;;;;;5118170;28;20445;-72
2022/03/12 11:06:45;;;;;;;10.80;6.90;;;9.20;21.10;;;;;;5118077;28;20567;-73
2022/03/12 11:09:16;;;;;;;8.33;6.03;;;9.20;21.00;;;;;;5118078;28;20464;-71
2022/03/12 11:11:45;;;;;;;10.30;6.37;;;9.20;20.90;;;;;;5118160;28;20464;-71
2022/03/12 11:14:21;;;;;;;10.03;6.50;;;9.30;20.80;;;;;;5117567;28;20460;-70
2022/03/12 11:16:52;;;;;;;12.67;6.70;;;9.30;20.80;;;;;;5118055;28;20878;-72
2022/03/12 11:19:37;;;;;;;8.50;5.63;;;9.50;20.70;;;;;;5117667;28;20459;-71
2022/03/12 11:22:09;;;;;;;11.67;7.77;;;9.50;20.70;;;;;;5117920;28;20748;-71
2022/03/12 11:24:45;;;;;;;13.07;7.30;;;9.60;20.50;;;;;;5117991;28;20437;-72
2022/03/12 11:27:14;;;;;;;11.67;5.87;;;9.70;20.70;;;;;;5117603;28;20442;-71
2022/03/12 11:29:42;;;;;;;9.10;6.23;;;9.80;20.10;;;;;;5117662;28;20448;-71
2022/03/12 11:32:10;;;;;;;6.20;5.30;;;9.80;20.00;;;;;;5117930;28;20529;-71
2022/03/12 11:34:40;;;;;;;11.00;5.90;;;9.90;20.10;;;;;;5118099;28;20541;-71
2022/03/12 11:37:12;;;;;;;8.97;6.20;;;10.00;19.60;;;;;;5117861;28;20862;-71
2022/03/12 11:39:41;;;;;;;7.73;6.17;;;10.10;19.50;;;;;;5117283;28;20909;-71
2022/03/12 11:42:11;;;;;;;8.00;5.67;;;10.30;19.10;;;;;;5117706;28;20474;-71
2022/03/12 11:44:40;;;;;;;8.43;5.80;;;10.40;19.00;;;;;;5118496;28;20483;-71
2022/03/12 11:47:09;;;;;;;9.10;6.10;;;10.40;18.80;;;;;;5117625;28;20495;-71
2022/03/12 11:49:36;;;;;;;7.77;5.37;;;10.50;18.60;;;;;;5118618;28;20460;-71
2022/03/12 11:52:04;;;;;;;6.90;5.10;;;10.70;18.40;;;;;;5117649;28;20815;-71
2022/03/12 11:54:31;;;;;;;9.13;6.33;;;10.60;18.00;;;;;;5117735;28;20513;-71
2022/03/12 11:56:59;;;;;;;9.03;5.37;;;10.60;18.30;;;;;;5116874;28;20488;-71
2022/03/12 11:59:26;;;;;;;7.23;5.07;;;10.80;18.70;;;;;;5116539;28;20914;-71
2022/03/12 12:02:02;;;;;;;6.97;4.93;;;11.00;17.90;;;;;;5116473;28;20924;-71
2022/03/12 12:04:32;;;;;;;7.27;5.30;;;11.10;17.70;;;;;;5115580;28;20436;-72
2022/03/12 12:07:00;;;;;;;5.50;4.90;;;11.70;18.10;;;;;;5116834;28;20477;-71
2022/03/12 12:09:28;;;;;;;7.00;4.60;;;12.50;17.80;;;;;;5116768;28;20547;-70
2022/03/12 12:11:55;;;;;;;10.83;4.93;;;13.70;17.50;;;;;;5116813;28;20539;-72
2022/03/12 12:14:24;;;;;;;6.43;4.80;;;15.00;16.50;;;;;;5116722;28;20452;-72
2022/03/12 12:16:50;;;;;;;6.17;4.80;;;15.90;16.30;;;;;;5116627;28;20750;-72
2022/03/12 12:19:17;;;;;;;9.77;4.93;;;16.60;15.10;;;;;;5117413;28;20848;-72
2022/03/12 12:21:45;;;;;;;9.73;5.63;;;17.00;14.80;;;;;;5116437;28;20812;-71
2022/03/12 12:24:26;;;;;;;6.70;5.20;;;17.60;14.60;;;;;;5116653;28;20467;-72
2022/03/12 12:27:02;;;;;;;11.37;5.70;;;18.30;14.30;;;;;;5116488;28;20559;-70
2022/03/12 12:29:46;;;;;;;5.60;4.70;;;18.70;13.60;;;;;;5116381;28;20466;-73
2022/03/12 12:32:14;;;;;;;8.13;6.30;;;18.90;13.40;;;;;;5116639;28;20460;-71
2022/03/12 12:35:06;;;;;;;5.47;4.50;;;19.30;12.90;;;;;;5116404;28;20518;-71
2022/03/12 12:37:53;;;;;;;7.40;5.00;;;19.50;12.70;;;;;;5116113;28;20437;-71
2022/03/12 12:40:26;;;;;;;8.03;5.80;;;20.40;13.40;;;;;;5116415;28;20515;-71
2022/03/12 12:42:56;;;;;;;6.13;4.90;;;21.20;12.30;;;;;;5116218;28;20440;-72
2022/03/12 12:45:25;;;;;;;6.80;5.90;;;21.70;12.90;;;;;;5115731;28;20452;-71
2022/03/12 12:48:06;;;;;;;5.30;4.80;;;22.40;12.30;;;;;;5116418;28;20850;-72